<?xml version="1.0" encoding="UTF-8"?>
<gpx version="1.0" creator="Trackator" xmlns:xsi="http://www.w3.org/2001/XMLSchema-instance" xmlns="http://www.topografix.com/GPX/1/0" xmlns:topografix="http://www.topografix.com/GPX/Private/TopoGrafix/0/1" xsi:schemaLocation="http://www.topografix.com/GPX/1/0 http://www.topografix.com/GPX/1/0/gpx.xsd http://www.topografix.com/GPX/Private/TopoGrafix/0/1 http://www.topografix.com/GPX/Private/TopoGrafix/0/1/topografix.xsd">
<metadata>
<link href="http://www.trackator.com">
<text>Trackator</text>
</link>
</metadata>
<time>2017-03-02T:15:44Z</time>
<trk>
<name>Track: </name>
<desc>Hiking</desc>
<trkseg>
<trkpt lat="40.631076666666665" lon="-3.1820183333333336">
<ele>621</ele>
<time>2017-03-02T:15:44Z</time>
</trkpt>
<trkpt lat="40.631076666666665" lon="-3.1820816666666665">
<ele>634</ele>
<time>2017-03-02T10:15:46Z</time>
</trkpt>
<trkpt lat="40.63110166666667" lon="-3.1819649999999995">
<ele>622</ele>
<time>2017-03-02T10:15:48Z</time>
</trkpt>
<trkpt lat="40.63111666666667" lon="-3.181968333333333">
<ele>619</ele>
<time>2017-03-02T10:15:50Z</time>
</trkpt>
<trkpt lat="40.63111666666667" lon="-3.18193">
<ele>608</ele>
<time>2017-03-02T10:15:52Z</time>
</trkpt>
<trkpt lat="40.631105000000005" lon="-3.1819416666666664">
<ele>609</ele>
<time>2017-03-02T10:15:55Z</time>
</trkpt>
<trkpt lat="40.63116333333333" lon="-3.181976666666667">
<ele>611</ele>
<time>2017-03-02T10:15:57Z</time>
</trkpt>
<trkpt lat="40.63115333333334" lon="-3.181966666666667">
<ele>611</ele>
<time>2017-03-02T10:15:59Z</time>
</trkpt>
<trkpt lat="40.63115833333333" lon="-3.1819933333333332">
<ele>613</ele>
<time>2017-03-02T10:16:01Z</time>
</trkpt>
<trkpt lat="40.631139999999995" lon="-3.181991666666667">
<ele>614</ele>
<time>2017-03-02T10:16:03Z</time>
</trkpt>
<trkpt lat="40.631115" lon="-3.18199">
<ele>615</ele>
<time>2017-03-02T10:16:05Z</time>
</trkpt>
<trkpt lat="40.63110833333334" lon="-3.18199">
<ele>618</ele>
<time>2017-03-02T10:16:07Z</time>
</trkpt>
<trkpt lat="40.631166666666665" lon="-3.182021666666666">
<ele>620</ele>
<time>2017-03-02T10:16:09Z</time>
</trkpt>
<trkpt lat="40.63119166666667" lon="-3.1820999999999997">
<ele>629</ele>
<time>2017-03-02T10:16:11Z</time>
</trkpt>
<trkpt lat="40.631225" lon="-3.1821200000000003">
<ele>630</ele>
<time>2017-03-02T10:16:13Z</time>
</trkpt>
<trkpt lat="40.63124166666667" lon="-3.182166666666667">
<ele>632</ele>
<time>2017-03-02T10:16:15Z</time>
</trkpt>
<trkpt lat="40.6312" lon="-3.1821816666666667">
<ele>635</ele>
<time>2017-03-02T10:16:17Z</time>
</trkpt>
<trkpt lat="40.63114333333333" lon="-3.1821633333333335">
<ele>634</ele>
<time>2017-03-02T10:16:19Z</time>
</trkpt>
<trkpt lat="40.63112666666667" lon="-3.182205">
<ele>637</ele>
<time>2017-03-02T10:16:21Z</time>
</trkpt>
<trkpt lat="40.631096666666664" lon="-3.1822150000000002">
<ele>640</ele>
<time>2017-03-02T10:16:23Z</time>
</trkpt>
<trkpt lat="40.63106666666667" lon="-3.1821949999999997">
<ele>642</ele>
<time>2017-03-02T10:16:25Z</time>
</trkpt>
<trkpt lat="40.63101833333334" lon="-3.1821050000000004">
<ele>635</ele>
<time>2017-03-02T10:16:27Z</time>
</trkpt>
<trkpt lat="40.63098333333333" lon="-3.1822083333333335">
<ele>632</ele>
<time>2017-03-02T10:16:29Z</time>
</trkpt>
<trkpt lat="40.630985" lon="-3.1822466666666664">
<ele>631</ele>
<time>2017-03-02T10:16:31Z</time>
</trkpt>
<trkpt lat="40.63099666666667" lon="-3.182256666666667">
<ele>631</ele>
<time>2017-03-02T10:16:33Z</time>
</trkpt>
<trkpt lat="40.63104166666667" lon="-3.1822683333333335">
<ele>633</ele>
<time>2017-03-02T10:16:35Z</time>
</trkpt>
<trkpt lat="40.631085" lon="-3.182311666666666">
<ele>635</ele>
<time>2017-03-02T10:16:37Z</time>
</trkpt>
<trkpt lat="40.631105000000005" lon="-3.1823433333333337">
<ele>635</ele>
<time>2017-03-02T10:16:39Z</time>
</trkpt>
<trkpt lat="40.63107" lon="-3.1823200000000003">
<ele>635</ele>
<time>2017-03-02T10:16:41Z</time>
</trkpt>
<trkpt lat="40.63109833333333" lon="-3.182303333333333">
<ele>635</ele>
<time>2017-03-02T10:16:43Z</time>
</trkpt>
<trkpt lat="40.631085" lon="-3.1822500000000002">
<ele>634</ele>
<time>2017-03-02T10:16:45Z</time>
</trkpt>
<trkpt lat="40.63113333333333" lon="-3.1822316666666666">
<ele>633</ele>
<time>2017-03-02T10:16:47Z</time>
</trkpt>
<trkpt lat="40.631168333333335" lon="-3.182225">
<ele>632</ele>
<time>2017-03-02T10:16:49Z</time>
</trkpt>
<trkpt lat="40.630806666666665" lon="-3.1823949999999996">
<ele>628</ele>
<time>2017-03-02T10:16:55Z</time>
</trkpt>
<trkpt lat="40.630833333333335" lon="-3.1824616666666667">
<ele>628</ele>
<time>2017-03-02T10:16:57Z</time>
</trkpt>
<trkpt lat="40.630964999999996" lon="-3.1825199999999993">
<ele>628</ele>
<time>2017-03-02T10:16:59Z</time>
</trkpt>
<trkpt lat="40.630963333333334" lon="-3.1824916666666665">
<ele>628</ele>
<time>2017-03-02T10:17:01Z</time>
</trkpt>
<trkpt lat="40.63098" lon="-3.1824266666666667">
<ele>627</ele>
<time>2017-03-02T10:17:03Z</time>
</trkpt>
<trkpt lat="40.63099" lon="-3.1823683333333332">
<ele>627</ele>
<time>2017-03-02T10:17:05Z</time>
</trkpt>
<trkpt lat="40.63099333333333" lon="-3.182425">
<ele>628</ele>
<time>2017-03-02T10:17:07Z</time>
</trkpt>
<trkpt lat="40.630995" lon="-3.1825033333333335">
<ele>628</ele>
<time>2017-03-02T10:17:09Z</time>
</trkpt>
<trkpt lat="40.63103666666667" lon="-3.1826183333333335">
<ele>628</ele>
<time>2017-03-02T10:17:11Z</time>
</trkpt>
<trkpt lat="40.630975" lon="-3.182708333333333">
<ele>628</ele>
<time>2017-03-02T10:17:13Z</time>
</trkpt>
<trkpt lat="40.630959999999995" lon="-3.1827449999999997">
<ele>628</ele>
<time>2017-03-02T10:17:15Z</time>
</trkpt>
<trkpt lat="40.630925000000005" lon="-3.1827449999999997">
<ele>629</ele>
<time>2017-03-02T10:17:17Z</time>
</trkpt>
<trkpt lat="40.630896666666665" lon="-3.1826999999999996">
<ele>629</ele>
<time>2017-03-02T10:17:19Z</time>
</trkpt>
<trkpt lat="40.63081833333333" lon="-3.1826483333333337">
<ele>628</ele>
<time>2017-03-02T10:17:21Z</time>
</trkpt>
<trkpt lat="40.630781666666664" lon="-3.1826083333333335">
<ele>628</ele>
<time>2017-03-02T10:17:23Z</time>
</trkpt>
<trkpt lat="40.630765" lon="-3.18259">
<ele>628</ele>
<time>2017-03-02T10:17:25Z</time>
</trkpt>
<trkpt lat="40.63075833333333" lon="-3.182596666666667">
<ele>628</ele>
<time>2017-03-02T10:17:27Z</time>
</trkpt>
<trkpt lat="40.630739999999996" lon="-3.1826616666666667">
<ele>629</ele>
<time>2017-03-02T10:17:29Z</time>
</trkpt>
<trkpt lat="40.63073333333333" lon="-3.18268">
<ele>629</ele>
<time>2017-03-02T10:17:31Z</time>
</trkpt>
<trkpt lat="40.63072666666667" lon="-3.1826999999999996">
<ele>629</ele>
<time>2017-03-02T10:17:33Z</time>
</trkpt>
<trkpt lat="40.630718333333334" lon="-3.182716666666667">
<ele>629</ele>
<time>2017-03-02T10:17:35Z</time>
</trkpt>
<trkpt lat="40.630721666666666" lon="-3.182751666666667">
<ele>629</ele>
<time>2017-03-02T10:17:37Z</time>
</trkpt>
<trkpt lat="40.630716666666665" lon="-3.1827866666666664">
<ele>629</ele>
<time>2017-03-02T10:17:39Z</time>
</trkpt>
<trkpt lat="40.630691666666664" lon="-3.182833333333334">
<ele>629</ele>
<time>2017-03-02T10:17:41Z</time>
</trkpt>
<trkpt lat="40.630675" lon="-3.1828666666666665">
<ele>629</ele>
<time>2017-03-02T10:17:43Z</time>
</trkpt>
<trkpt lat="40.630698333333335" lon="-3.182878333333333">
<ele>629</ele>
<time>2017-03-02T10:17:45Z</time>
</trkpt>
<trkpt lat="40.63071" lon="-3.1828950000000003">
<ele>630</ele>
<time>2017-03-02T10:17:47Z</time>
</trkpt>
<trkpt lat="40.63073166666666" lon="-3.18287">
<ele>630</ele>
<time>2017-03-02T10:17:49Z</time>
</trkpt>
<trkpt lat="40.63075666666667" lon="-3.1828399999999997">
<ele>631</ele>
<time>2017-03-02T10:17:51Z</time>
</trkpt>
<trkpt lat="40.630775" lon="-3.1828383333333337">
<ele>631</ele>
<time>2017-03-02T10:17:53Z</time>
</trkpt>
<trkpt lat="40.630784999999996" lon="-3.1828316666666665">
<ele>631</ele>
<time>2017-03-02T10:17:55Z</time>
</trkpt>
<trkpt lat="40.63079666666667" lon="-3.1828166666666666">
<ele>631</ele>
<time>2017-03-02T10:17:57Z</time>
</trkpt>
<trkpt lat="40.630775" lon="-3.1829566666666667">
<ele>631</ele>
<time>2017-03-02T10:17:59Z</time>
</trkpt>
<trkpt lat="40.630829999999996" lon="-3.18316">
<ele>631</ele>
<time>2017-03-02T10:18:01Z</time>
</trkpt>
<trkpt lat="40.63100166666666" lon="-3.1833700000000005">
<ele>632</ele>
<time>2017-03-02T10:18:03Z</time>
</trkpt>
<trkpt lat="40.63117333333333" lon="-3.1835933333333335">
<ele>631</ele>
<time>2017-03-02T10:18:05Z</time>
</trkpt>
<trkpt lat="40.63130833333333" lon="-3.183833333333333">
<ele>631</ele>
<time>2017-03-02T10:18:07Z</time>
</trkpt>
<trkpt lat="40.63133166666667" lon="-3.183983333333333">
<ele>631</ele>
<time>2017-03-02T10:18:09Z</time>
</trkpt>
<trkpt lat="40.63116333333333" lon="-3.1836766666666665">
<ele>630</ele>
<time>2017-03-02T10:18:11Z</time>
</trkpt>
<trkpt lat="40.63112" lon="-3.1835566666666666">
<ele>630</ele>
<time>2017-03-02T10:18:13Z</time>
</trkpt>
<trkpt lat="40.631135" lon="-3.183545">
<ele>630</ele>
<time>2017-03-02T10:18:15Z</time>
</trkpt>
<trkpt lat="40.631150000000005" lon="-3.1835049999999994">
<ele>631</ele>
<time>2017-03-02T10:18:17Z</time>
</trkpt>
<trkpt lat="40.63111833333333" lon="-3.1833866666666664">
<ele>631</ele>
<time>2017-03-02T10:18:19Z</time>
</trkpt>
<trkpt lat="40.63113166666667" lon="-3.183346666666667">
<ele>631</ele>
<time>2017-03-02T10:18:21Z</time>
</trkpt>
<trkpt lat="40.63114666666667" lon="-3.183315">
<ele>631</ele>
<time>2017-03-02T10:18:23Z</time>
</trkpt>
<trkpt lat="40.631184999999995" lon="-3.183295">
<ele>631</ele>
<time>2017-03-02T10:18:25Z</time>
</trkpt>
<trkpt lat="40.63093166666667" lon="-3.1826733333333332">
<ele>630</ele>
<time>2017-03-02T10:18:27Z</time>
</trkpt>
<trkpt lat="40.630919999999996" lon="-3.182633333333334">
<ele>631</ele>
<time>2017-03-02T10:18:29Z</time>
</trkpt>
<trkpt lat="40.630943333333335" lon="-3.1825649999999994">
<ele>631</ele>
<time>2017-03-02T10:18:31Z</time>
</trkpt>
<trkpt lat="40.63095333333333" lon="-3.18251">
<ele>632</ele>
<time>2017-03-02T10:18:33Z</time>
</trkpt>
<trkpt lat="40.63097333333334" lon="-3.1824683333333335">
<ele>633</ele>
<time>2017-03-02T10:18:35Z</time>
</trkpt>
<trkpt lat="40.630988333333335" lon="-3.1824483333333338">
<ele>633</ele>
<time>2017-03-02T10:18:37Z</time>
</trkpt>
<trkpt lat="40.630985" lon="-3.182428333333333">
<ele>634</ele>
<time>2017-03-02T10:18:39Z</time>
</trkpt>
<trkpt lat="40.630964999999996" lon="-3.1823283333333334">
<ele>634</ele>
<time>2017-03-02T10:18:41Z</time>
</trkpt>
<trkpt lat="40.63088333333334" lon="-3.1821499999999996">
<ele>634</ele>
<time>2017-03-02T10:18:43Z</time>
</trkpt>
<trkpt lat="40.63082166666666" lon="-3.182035">
<ele>634</ele>
<time>2017-03-02T10:18:45Z</time>
</trkpt>
<trkpt lat="40.630721666666666" lon="-3.1823133333333335">
<ele>636</ele>
<time>2017-03-02T10:18:47Z</time>
</trkpt>
<trkpt lat="40.63072666666667" lon="-3.1823449999999998">
<ele>636</ele>
<time>2017-03-02T10:18:49Z</time>
</trkpt>
<trkpt lat="40.63092666666667" lon="-3.1825033333333335">
<ele>636</ele>
<time>2017-03-02T10:18:51Z</time>
</trkpt>
<trkpt lat="40.630905" lon="-3.182516666666667">
<ele>637</ele>
<time>2017-03-02T10:18:53Z</time>
</trkpt>
<trkpt lat="40.630955" lon="-3.1824966666666663">
<ele>638</ele>
<time>2017-03-02T10:18:55Z</time>
</trkpt>
<trkpt lat="40.63110833333334" lon="-3.182465">
<ele>639</ele>
<time>2017-03-02T10:18:57Z</time>
</trkpt>
<trkpt lat="40.63122166666667" lon="-3.182485">
<ele>641</ele>
<time>2017-03-02T10:18:59Z</time>
</trkpt>
<trkpt lat="40.63129666666667" lon="-3.1824950000000003">
<ele>644</ele>
<time>2017-03-02T10:19:01Z</time>
</trkpt>
<trkpt lat="40.631335" lon="-3.1824999999999997">
<ele>646</ele>
<time>2017-03-02T10:19:03Z</time>
</trkpt>
<trkpt lat="40.63135166666667" lon="-3.182511666666666">
<ele>647</ele>
<time>2017-03-02T10:19:05Z</time>
</trkpt>
<trkpt lat="40.631375000000006" lon="-3.182515">
<ele>649</ele>
<time>2017-03-02T10:19:07Z</time>
</trkpt>
<trkpt lat="40.631411666666665" lon="-3.182493333333333">
<ele>649</ele>
<time>2017-03-02T10:19:09Z</time>
</trkpt>
<trkpt lat="40.631420000000006" lon="-3.1824950000000003">
<ele>650</ele>
<time>2017-03-02T10:19:11Z</time>
</trkpt>
<trkpt lat="40.63142833333333" lon="-3.182506666666667">
<ele>651</ele>
<time>2017-03-02T10:19:13Z</time>
</trkpt>
<trkpt lat="40.631445" lon="-3.182538333333333">
<ele>652</ele>
<time>2017-03-02T10:19:15Z</time>
</trkpt>
<trkpt lat="40.631445" lon="-3.1825550000000002">
<ele>653</ele>
<time>2017-03-02T10:19:17Z</time>
</trkpt>
<trkpt lat="40.63145333333333" lon="-3.1825733333333335">
<ele>652</ele>
<time>2017-03-02T10:19:19Z</time>
</trkpt>
<trkpt lat="40.631456666666665" lon="-3.182605">
<ele>653</ele>
<time>2017-03-02T10:19:21Z</time>
</trkpt>
<trkpt lat="40.63145" lon="-3.1826366666666663">
<ele>653</ele>
<time>2017-03-02T10:19:23Z</time>
</trkpt>
<trkpt lat="40.63144" lon="-3.1826683333333334">
<ele>653</ele>
<time>2017-03-02T10:19:25Z</time>
</trkpt>
<trkpt lat="40.63142833333333" lon="-3.1827050000000003">
<ele>653</ele>
<time>2017-03-02T10:19:27Z</time>
</trkpt>
<trkpt lat="40.631418333333336" lon="-3.1827400000000003">
<ele>653</ele>
<time>2017-03-02T10:19:29Z</time>
</trkpt>
<trkpt lat="40.63139666666667" lon="-3.182775">
<ele>654</ele>
<time>2017-03-02T10:19:31Z</time>
</trkpt>
<trkpt lat="40.631395" lon="-3.1827883333333338">
<ele>654</ele>
<time>2017-03-02T10:19:33Z</time>
</trkpt>
<trkpt lat="40.63135666666667" lon="-3.1827850000000004">
<ele>654</ele>
<time>2017-03-02T10:19:35Z</time>
</trkpt>
<trkpt lat="40.63122833333333" lon="-3.182716666666667">
<ele>655</ele>
<time>2017-03-02T10:19:37Z</time>
</trkpt>
<trkpt lat="40.63110833333334" lon="-3.1825716666666666">
<ele>654</ele>
<time>2017-03-02T10:19:39Z</time>
</trkpt>
<trkpt lat="40.63103666666667" lon="-3.1824016666666664">
<ele>653</ele>
<time>2017-03-02T10:19:41Z</time>
</trkpt>
<trkpt lat="40.63095166666667" lon="-3.182405">
<ele>653</ele>
<time>2017-03-02T10:19:43Z</time>
</trkpt>
<trkpt lat="40.630905" lon="-3.1824950000000003">
<ele>653</ele>
<time>2017-03-02T10:19:45Z</time>
</trkpt>
<trkpt lat="40.63091" lon="-3.1825850000000004">
<ele>654</ele>
<time>2017-03-02T10:19:47Z</time>
</trkpt>
<trkpt lat="40.63093833333333" lon="-3.1826833333333338">
<ele>654</ele>
<time>2017-03-02T10:19:49Z</time>
</trkpt>
<trkpt lat="40.630961666666664" lon="-3.182761666666667">
<ele>654</ele>
<time>2017-03-02T10:19:51Z</time>
</trkpt>
<trkpt lat="40.630975" lon="-3.1828366666666663">
<ele>654</ele>
<time>2017-03-02T10:19:53Z</time>
</trkpt>
<trkpt lat="40.63096666666667" lon="-3.1829400000000003">
<ele>654</ele>
<time>2017-03-02T10:19:55Z</time>
</trkpt>
<trkpt lat="40.63097666666667" lon="-3.182968333333333">
<ele>654</ele>
<time>2017-03-02T10:19:57Z</time>
</trkpt>
<trkpt lat="40.630988333333335" lon="-3.18301">
<ele>655</ele>
<time>2017-03-02T10:19:59Z</time>
</trkpt>
<trkpt lat="40.63097833333334" lon="-3.183006666666666">
<ele>655</ele>
<time>2017-03-02T10:20:01Z</time>
</trkpt>
<trkpt lat="40.630935" lon="-3.1829933333333336">
<ele>655</ele>
<time>2017-03-02T10:20:03Z</time>
</trkpt>
<trkpt lat="40.63087666666667" lon="-3.18297">
<ele>655</ele>
<time>2017-03-02T10:20:05Z</time>
</trkpt>
<trkpt lat="40.63091" lon="-3.1829850000000004">
<ele>655</ele>
<time>2017-03-02T10:20:07Z</time>
</trkpt>
<trkpt lat="40.63102666666667" lon="-3.183041666666667">
<ele>654</ele>
<time>2017-03-02T10:20:09Z</time>
</trkpt>
<trkpt lat="40.63107166666667" lon="-3.183093333333333">
<ele>654</ele>
<time>2017-03-02T10:20:11Z</time>
</trkpt>
<trkpt lat="40.63104666666666" lon="-3.183115">
<ele>655</ele>
<time>2017-03-02T10:20:13Z</time>
</trkpt>
<trkpt lat="40.631015000000005" lon="-3.183123333333333">
<ele>655</ele>
<time>2017-03-02T10:20:15Z</time>
</trkpt>
<trkpt lat="40.63100166666666" lon="-3.183128333333334">
<ele>655</ele>
<time>2017-03-02T10:20:17Z</time>
</trkpt>
<trkpt lat="40.63099666666667" lon="-3.1831433333333337">
<ele>655</ele>
<time>2017-03-02T10:20:19Z</time>
</trkpt>
<trkpt lat="40.63097666666667" lon="-3.1831949999999996">
<ele>655</ele>
<time>2017-03-02T10:20:21Z</time>
</trkpt>
<trkpt lat="40.63097166666667" lon="-3.1832350000000003">
<ele>655</ele>
<time>2017-03-02T10:20:23Z</time>
</trkpt>
<trkpt lat="40.63099833333333" lon="-3.183295">
<ele>656</ele>
<time>2017-03-02T10:20:25Z</time>
</trkpt>
<trkpt lat="40.63104" lon="-3.18331">
<ele>657</ele>
<time>2017-03-02T10:20:27Z</time>
</trkpt>
<trkpt lat="40.63104" lon="-3.183351666666667">
<ele>658</ele>
<time>2017-03-02T10:20:29Z</time>
</trkpt>
<trkpt lat="40.63102166666667" lon="-3.183365">
<ele>659</ele>
<time>2017-03-02T10:20:31Z</time>
</trkpt>
<trkpt lat="40.631035" lon="-3.1833633333333333">
<ele>660</ele>
<time>2017-03-02T10:20:33Z</time>
</trkpt>
<trkpt lat="40.631035" lon="-3.1833633333333333">
<ele>661</ele>
<time>2017-03-02T10:20:35Z</time>
</trkpt>
<trkpt lat="40.631075" lon="-3.183351666666667">
<ele>661</ele>
<time>2017-03-02T10:20:37Z</time>
</trkpt>
<trkpt lat="40.63110666666667" lon="-3.1833400000000003">
<ele>662</ele>
<time>2017-03-02T10:20:39Z</time>
</trkpt>
<trkpt lat="40.631105000000005" lon="-3.1832833333333337">
<ele>662</ele>
<time>2017-03-02T10:20:41Z</time>
</trkpt>
<trkpt lat="40.63113666666666" lon="-3.183241666666667">
<ele>663</ele>
<time>2017-03-02T10:20:43Z</time>
</trkpt>
<trkpt lat="40.631145" lon="-3.183191666666666">
<ele>663</ele>
<time>2017-03-02T10:20:45Z</time>
</trkpt>
<trkpt lat="40.63116" lon="-3.1831499999999995">
<ele>664</ele>
<time>2017-03-02T10:20:47Z</time>
</trkpt>
<trkpt lat="40.63116" lon="-3.1831216666666666">
<ele>665</ele>
<time>2017-03-02T10:20:49Z</time>
</trkpt>
<trkpt lat="40.63116333333333" lon="-3.1830966666666662">
<ele>666</ele>
<time>2017-03-02T10:20:51Z</time>
</trkpt>
<trkpt lat="40.63118333333333" lon="-3.1830683333333334">
<ele>666</ele>
<time>2017-03-02T10:20:53Z</time>
</trkpt>
<trkpt lat="40.63122166666667" lon="-3.183051666666666">
<ele>667</ele>
<time>2017-03-02T10:20:55Z</time>
</trkpt>
<trkpt lat="40.631258333333335" lon="-3.1830399999999996">
<ele>667</ele>
<time>2017-03-02T10:20:57Z</time>
</trkpt>
<trkpt lat="40.63128" lon="-3.183028333333333">
<ele>668</ele>
<time>2017-03-02T10:20:59Z</time>
</trkpt>
<trkpt lat="40.63129833333333" lon="-3.1830300000000005">
<ele>669</ele>
<time>2017-03-02T10:21:01Z</time>
</trkpt>
<trkpt lat="40.631276666666665" lon="-3.1829433333333337">
<ele>669</ele>
<time>2017-03-02T10:21:03Z</time>
</trkpt>
<trkpt lat="40.63129666666667" lon="-3.1829349999999996">
<ele>669</ele>
<time>2017-03-02T10:21:05Z</time>
</trkpt>
<trkpt lat="40.631283333333336" lon="-3.182888333333333">
<ele>666</ele>
<time>2017-03-02T10:21:07Z</time>
</trkpt>
<trkpt lat="40.63116" lon="-3.182961666666667">
<ele>663</ele>
<time>2017-03-02T10:21:09Z</time>
</trkpt>
<trkpt lat="40.63108" lon="-3.182878333333333">
<ele>664</ele>
<time>2017-03-02T10:21:11Z</time>
</trkpt>
<trkpt lat="40.63098333333333" lon="-3.1830366666666663">
<ele>664</ele>
<time>2017-03-02T10:21:13Z</time>
</trkpt>
<trkpt lat="40.63147" lon="-3.1828683333333334">
<ele>670</ele>
<time>2017-03-02T10:21:25Z</time>
</trkpt>
<trkpt lat="40.631461666666674" lon="-3.1828450000000004">
<ele>669</ele>
<time>2017-03-02T10:21:27Z</time>
</trkpt>
<trkpt lat="40.63147333333333" lon="-3.182818333333334">
<ele>669</ele>
<time>2017-03-02T10:21:29Z</time>
</trkpt>
<trkpt lat="40.631456666666665" lon="-3.1827783333333333">
<ele>670</ele>
<time>2017-03-02T10:21:31Z</time>
</trkpt>
<trkpt lat="40.63149666666666" lon="-3.1827933333333336">
<ele>671</ele>
<time>2017-03-02T10:21:33Z</time>
</trkpt>
<trkpt lat="40.63152" lon="-3.1828133333333333">
<ele>672</ele>
<time>2017-03-02T10:21:35Z</time>
</trkpt>
<trkpt lat="40.631546666666665" lon="-3.1828000000000003">
<ele>673</ele>
<time>2017-03-02T10:21:37Z</time>
</trkpt>
<trkpt lat="40.63154833333333" lon="-3.182806666666666">
<ele>671</ele>
<time>2017-03-02T10:21:39Z</time>
</trkpt>
<trkpt lat="40.63154833333333" lon="-3.182806666666666">
<ele>671</ele>
<time>2017-03-02T10:21:41Z</time>
</trkpt>
<trkpt lat="40.63154833333333" lon="-3.182806666666666">
<ele>671</ele>
<time>2017-03-02T10:21:43Z</time>
</trkpt>
<trkpt lat="40.631508333333336" lon="-3.1828549999999995">
<ele>672</ele>
<time>2017-03-02T10:21:45Z</time>
</trkpt>
<trkpt lat="40.631521666666664" lon="-3.1828083333333335">
<ele>674</ele>
<time>2017-03-02T10:21:47Z</time>
</trkpt>
<trkpt lat="40.631515" lon="-3.1827666666666667">
<ele>674</ele>
<time>2017-03-02T10:21:49Z</time>
</trkpt>
<trkpt lat="40.63151333333334" lon="-3.18273">
<ele>674</ele>
<time>2017-03-02T10:21:51Z</time>
</trkpt>
<trkpt lat="40.631521666666664" lon="-3.1826999999999996">
<ele>674</ele>
<time>2017-03-02T10:21:53Z</time>
</trkpt>
<trkpt lat="40.63153166666667" lon="-3.182688333333333">
<ele>675</ele>
<time>2017-03-02T10:21:55Z</time>
</trkpt>
<trkpt lat="40.63153833333333" lon="-3.18268">
<ele>675</ele>
<time>2017-03-02T10:21:57Z</time>
</trkpt>
<trkpt lat="40.63153833333333" lon="-3.18268">
<ele>675</ele>
<time>2017-03-02T10:21:59Z</time>
</trkpt>
<trkpt lat="40.631573333333336" lon="-3.1826233333333334">
<ele>673</ele>
<time>2017-03-02T10:22:01Z</time>
</trkpt>
<trkpt lat="40.63158333333333" lon="-3.1826133333333333">
<ele>674</ele>
<time>2017-03-02T10:22:03Z</time>
</trkpt>
<trkpt lat="40.63159666666666" lon="-3.1826099999999995">
<ele>675</ele>
<time>2017-03-02T10:22:05Z</time>
</trkpt>
<trkpt lat="40.631618333333336" lon="-3.1826000000000003">
<ele>677</ele>
<time>2017-03-02T10:22:07Z</time>
</trkpt>
<trkpt lat="40.63162666666666" lon="-3.1825949999999996">
<ele>676</ele>
<time>2017-03-02T10:22:09Z</time>
</trkpt>
<trkpt lat="40.63163333333333" lon="-3.18259">
<ele>677</ele>
<time>2017-03-02T10:22:11Z</time>
</trkpt>
<trkpt lat="40.631655" lon="-3.182561666666667">
<ele>676</ele>
<time>2017-03-02T10:22:13Z</time>
</trkpt>
<trkpt lat="40.631661666666666" lon="-3.182553333333333">
<ele>676</ele>
<time>2017-03-02T10:22:15Z</time>
</trkpt>
<trkpt lat="40.631660000000004" lon="-3.182546666666667">
<ele>676</ele>
<time>2017-03-02T10:22:17Z</time>
</trkpt>
<trkpt lat="40.631660000000004" lon="-3.182546666666667">
<ele>676</ele>
<time>2017-03-02T10:22:19Z</time>
</trkpt>
<trkpt lat="40.631660000000004" lon="-3.182546666666667">
<ele>676</ele>
<time>2017-03-02T10:22:21Z</time>
</trkpt>
<trkpt lat="40.631660000000004" lon="-3.182546666666667">
<ele>676</ele>
<time>2017-03-02T10:22:23Z</time>
</trkpt>
<trkpt lat="40.63164" lon="-3.1824616666666667">
<ele>674</ele>
<time>2017-03-02T10:22:25Z</time>
</trkpt>
<trkpt lat="40.63165" lon="-3.182478333333333">
<ele>667</ele>
<time>2017-03-02T10:22:27Z</time>
</trkpt>
<trkpt lat="40.63166666666667" lon="-3.182241666666667">
<ele>651</ele>
<time>2017-03-02T10:22:29Z</time>
</trkpt>
<trkpt lat="40.63180833333333" lon="-3.1821550000000003">
<ele>647</ele>
<time>2017-03-02T10:22:31Z</time>
</trkpt>
<trkpt lat="40.63185166666666" lon="-3.1822083333333335">
<ele>639</ele>
<time>2017-03-02T10:22:33Z</time>
</trkpt>
<trkpt lat="40.631836666666665" lon="-3.182196666666667">
<ele>639</ele>
<time>2017-03-02T10:22:35Z</time>
</trkpt>
<trkpt lat="40.63180166666667" lon="-3.182241666666667">
<ele>639</ele>
<time>2017-03-02T10:22:37Z</time>
</trkpt>
<trkpt lat="40.63178833333333" lon="-3.182243333333333">
<ele>639</ele>
<time>2017-03-02T10:22:39Z</time>
</trkpt>
<trkpt lat="40.63178166666667" lon="-3.1822399999999997">
<ele>640</ele>
<time>2017-03-02T10:22:41Z</time>
</trkpt>
<trkpt lat="40.631795000000004" lon="-3.1822150000000002">
<ele>641</ele>
<time>2017-03-02T10:22:43Z</time>
</trkpt>
<trkpt lat="40.63181" lon="-3.182196666666667">
<ele>641</ele>
<time>2017-03-02T10:22:45Z</time>
</trkpt>
<trkpt lat="40.63182333333334" lon="-3.182185">
<ele>642</ele>
<time>2017-03-02T10:22:47Z</time>
</trkpt>
<trkpt lat="40.631861666666666" lon="-3.182213333333333">
<ele>643</ele>
<time>2017-03-02T10:22:49Z</time>
</trkpt>
<trkpt lat="40.63189666666666" lon="-3.1822266666666668">
<ele>643</ele>
<time>2017-03-02T10:22:51Z</time>
</trkpt>
<trkpt lat="40.63190833333333" lon="-3.182225">
<ele>643</ele>
<time>2017-03-02T10:22:53Z</time>
</trkpt>
<trkpt lat="40.63191666666667" lon="-3.182221666666666">
<ele>643</ele>
<time>2017-03-02T10:22:55Z</time>
</trkpt>
<trkpt lat="40.63191666666667" lon="-3.182221666666666">
<ele>643</ele>
<time>2017-03-02T10:22:57Z</time>
</trkpt>
<trkpt lat="40.63191666666667" lon="-3.182221666666666">
<ele>643</ele>
<time>2017-03-02T10:22:59Z</time>
</trkpt>
<trkpt lat="40.63191666666667" lon="-3.182221666666666">
<ele>643</ele>
<time>2017-03-02T10:23:01Z</time>
</trkpt>
<trkpt lat="40.63191666666667" lon="-3.182221666666666">
<ele>643</ele>
<time>2017-03-02T10:23:03Z</time>
</trkpt>
<trkpt lat="40.63200500000001" lon="-3.182211666666667">
<ele>645</ele>
<time>2017-03-02T10:23:05Z</time>
</trkpt>
<trkpt lat="40.63203" lon="-3.1822033333333337">
<ele>646</ele>
<time>2017-03-02T10:23:07Z</time>
</trkpt>
<trkpt lat="40.632039999999996" lon="-3.182198333333333">
<ele>647</ele>
<time>2017-03-02T10:23:09Z</time>
</trkpt>
<trkpt lat="40.632039999999996" lon="-3.182198333333333">
<ele>647</ele>
<time>2017-03-02T10:23:11Z</time>
</trkpt>
<trkpt lat="40.63212" lon="-3.182166666666667">
<ele>649</ele>
<time>2017-03-02T10:23:13Z</time>
</trkpt>
<trkpt lat="40.63215666666667" lon="-3.1821583333333336">
<ele>649</ele>
<time>2017-03-02T10:23:15Z</time>
</trkpt>
<trkpt lat="40.6322" lon="-3.182148333333333">
<ele>649</ele>
<time>2017-03-02T10:23:17Z</time>
</trkpt>
<trkpt lat="40.63221333333333" lon="-3.1821499999999996">
<ele>650</ele>
<time>2017-03-02T10:23:19Z</time>
</trkpt>
<trkpt lat="40.63221333333333" lon="-3.1821499999999996">
<ele>650</ele>
<time>2017-03-02T10:23:21Z</time>
</trkpt>
<trkpt lat="40.63221333333333" lon="-3.1821499999999996">
<ele>650</ele>
<time>2017-03-02T10:23:23Z</time>
</trkpt>
<trkpt lat="40.63221333333333" lon="-3.1821499999999996">
<ele>650</ele>
<time>2017-03-02T10:23:25Z</time>
</trkpt>
<trkpt lat="40.63220833333333" lon="-3.1820516666666663">
<ele>652</ele>
<time>2017-03-02T10:23:27Z</time>
</trkpt>
<trkpt lat="40.63219333333333" lon="-3.1820383333333333">
<ele>652</ele>
<time>2017-03-02T10:23:29Z</time>
</trkpt>
<trkpt lat="40.632165" lon="-3.182025">
<ele>652</ele>
<time>2017-03-02T10:23:31Z</time>
</trkpt>
<trkpt lat="40.632131666666666" lon="-3.182021666666666">
<ele>651</ele>
<time>2017-03-02T10:23:33Z</time>
</trkpt>
<trkpt lat="40.63211" lon="-3.1820099999999996">
<ele>651</ele>
<time>2017-03-02T10:23:35Z</time>
</trkpt>
<trkpt lat="40.63209" lon="-3.1819949999999997">
<ele>652</ele>
<time>2017-03-02T10:23:37Z</time>
</trkpt>
<trkpt lat="40.63206666666667" lon="-3.1819649999999995">
<ele>652</ele>
<time>2017-03-02T10:23:39Z</time>
</trkpt>
<trkpt lat="40.631975000000004" lon="-3.181861666666667">
<ele>653</ele>
<time>2017-03-02T10:23:41Z</time>
</trkpt>
<trkpt lat="40.63189666666666" lon="-3.181946666666667">
<ele>651</ele>
<time>2017-03-02T10:23:43Z</time>
</trkpt>
<trkpt lat="40.63189166666667" lon="-3.1819416666666664">
<ele>643</ele>
<time>2017-03-02T10:23:45Z</time>
</trkpt>
<trkpt lat="40.63191666666667" lon="-3.1819733333333335">
<ele>643</ele>
<time>2017-03-02T10:23:47Z</time>
</trkpt>
<trkpt lat="40.63192166666667" lon="-3.1819583333333337">
<ele>646</ele>
<time>2017-03-02T10:23:49Z</time>
</trkpt>
<trkpt lat="40.63191166666666" lon="-3.1819266666666666">
<ele>647</ele>
<time>2017-03-02T10:23:51Z</time>
</trkpt>
<trkpt lat="40.63187166666667" lon="-3.1818966666666664">
<ele>647</ele>
<time>2017-03-02T10:23:53Z</time>
</trkpt>
<trkpt lat="40.631875" lon="-3.1818699999999995">
<ele>647</ele>
<time>2017-03-02T10:23:55Z</time>
</trkpt>
<trkpt lat="40.631875" lon="-3.1818516666666663">
<ele>648</ele>
<time>2017-03-02T10:23:57Z</time>
</trkpt>
<trkpt lat="40.631865" lon="-3.181833333333334">
<ele>648</ele>
<time>2017-03-02T10:23:59Z</time>
</trkpt>
<trkpt lat="40.63185166666666" lon="-3.1818049999999998">
<ele>648</ele>
<time>2017-03-02T10:24:01Z</time>
</trkpt>
<trkpt lat="40.631861666666666" lon="-3.1818150000000003">
<ele>649</ele>
<time>2017-03-02T10:24:03Z</time>
</trkpt>
<trkpt lat="40.631855" lon="-3.1818033333333338">
<ele>648</ele>
<time>2017-03-02T10:24:05Z</time>
</trkpt>
<trkpt lat="40.63180833333333" lon="-3.1817783333333334">
<ele>650</ele>
<time>2017-03-02T10:24:07Z</time>
</trkpt>
<trkpt lat="40.63180333333333" lon="-3.181775">
<ele>650</ele>
<time>2017-03-02T10:24:09Z</time>
</trkpt>
<trkpt lat="40.631796666666666" lon="-3.181775">
<ele>650</ele>
<time>2017-03-02T10:24:11Z</time>
</trkpt>
<trkpt lat="40.631796666666666" lon="-3.181775">
<ele>650</ele>
<time>2017-03-02T10:24:13Z</time>
</trkpt>
<trkpt lat="40.631796666666666" lon="-3.181775">
<ele>650</ele>
<time>2017-03-02T10:24:15Z</time>
</trkpt>
<trkpt lat="40.631796666666666" lon="-3.181775">
<ele>650</ele>
<time>2017-03-02T10:24:17Z</time>
</trkpt>
<trkpt lat="40.631796666666666" lon="-3.181775">
<ele>650</ele>
<time>2017-03-02T10:24:19Z</time>
</trkpt>
<trkpt lat="40.631796666666666" lon="-3.181775">
<ele>650</ele>
<time>2017-03-02T10:24:21Z</time>
</trkpt>
<trkpt lat="40.631796666666666" lon="-3.181775">
<ele>650</ele>
<time>2017-03-02T10:24:23Z</time>
</trkpt>
<trkpt lat="40.631796666666666" lon="-3.181775">
<ele>650</ele>
<time>2017-03-02T10:24:25Z</time>
</trkpt>
<trkpt lat="40.631796666666666" lon="-3.181775">
<ele>650</ele>
<time>2017-03-02T10:24:27Z</time>
</trkpt>
<trkpt lat="40.631796666666666" lon="-3.181775">
<ele>650</ele>
<time>2017-03-02T10:24:29Z</time>
</trkpt>
<trkpt lat="40.631796666666666" lon="-3.181775">
<ele>650</ele>
<time>2017-03-02T10:24:31Z</time>
</trkpt>
<trkpt lat="40.631796666666666" lon="-3.181775">
<ele>650</ele>
<time>2017-03-02T10:24:33Z</time>
</trkpt>
<trkpt lat="40.631796666666666" lon="-3.181775">
<ele>650</ele>
<time>2017-03-02T10:24:35Z</time>
</trkpt>
<trkpt lat="40.631796666666666" lon="-3.181775">
<ele>650</ele>
<time>2017-03-02T10:24:37Z</time>
</trkpt>
<trkpt lat="40.631796666666666" lon="-3.181775">
<ele>650</ele>
<time>2017-03-02T10:24:39Z</time>
</trkpt>
<trkpt lat="40.631796666666666" lon="-3.181775">
<ele>650</ele>
<time>2017-03-02T10:24:41Z</time>
</trkpt>
<trkpt lat="40.63180666666666" lon="-3.18179">
<ele>651</ele>
<time>2017-03-02T10:24:43Z</time>
</trkpt>
<trkpt lat="40.63182666666667" lon="-3.1817783333333334">
<ele>652</ele>
<time>2017-03-02T10:24:45Z</time>
</trkpt>
<trkpt lat="40.631825000000006" lon="-3.1817799999999994">
<ele>652</ele>
<time>2017-03-02T10:24:47Z</time>
</trkpt>
<trkpt lat="40.631825000000006" lon="-3.1817799999999994">
<ele>652</ele>
<time>2017-03-02T10:24:49Z</time>
</trkpt>
<trkpt lat="40.631825000000006" lon="-3.1817799999999994">
<ele>652</ele>
<time>2017-03-02T10:24:51Z</time>
</trkpt>
<trkpt lat="40.631825000000006" lon="-3.1817799999999994">
<ele>652</ele>
<time>2017-03-02T10:24:53Z</time>
</trkpt>
<trkpt lat="40.631825000000006" lon="-3.1817799999999994">
<ele>652</ele>
<time>2017-03-02T10:24:55Z</time>
</trkpt>
<trkpt lat="40.631825000000006" lon="-3.1817799999999994">
<ele>652</ele>
<time>2017-03-02T10:24:57Z</time>
</trkpt>
<trkpt lat="40.631825000000006" lon="-3.1817799999999994">
<ele>652</ele>
<time>2017-03-02T10:24:59Z</time>
</trkpt>
<trkpt lat="40.631825000000006" lon="-3.1817799999999994">
<ele>652</ele>
<time>2017-03-02T10:25:01Z</time>
</trkpt>
<trkpt lat="40.63182333333334" lon="-3.1817499999999996">
<ele>653</ele>
<time>2017-03-02T10:25:03Z</time>
</trkpt>
<trkpt lat="40.631814999999996" lon="-3.18173">
<ele>653</ele>
<time>2017-03-02T10:25:05Z</time>
</trkpt>
<trkpt lat="40.63181" lon="-3.181703333333333">
<ele>653</ele>
<time>2017-03-02T10:25:07Z</time>
</trkpt>
<trkpt lat="40.63180166666667" lon="-3.1816983333333337">
<ele>653</ele>
<time>2017-03-02T10:25:09Z</time>
</trkpt>
<trkpt lat="40.631793333333334" lon="-3.1816883333333332">
<ele>654</ele>
<time>2017-03-02T10:25:11Z</time>
</trkpt>
<trkpt lat="40.631793333333334" lon="-3.1816883333333332">
<ele>654</ele>
<time>2017-03-02T10:25:13Z</time>
</trkpt>
<trkpt lat="40.631726666666665" lon="-3.18164">
<ele>654</ele>
<time>2017-03-02T10:25:15Z</time>
</trkpt>
<trkpt lat="40.63171333333333" lon="-3.1816416666666667">
<ele>655</ele>
<time>2017-03-02T10:25:17Z</time>
</trkpt>
<trkpt lat="40.63171333333333" lon="-3.1816416666666667">
<ele>655</ele>
<time>2017-03-02T10:25:19Z</time>
</trkpt>
<trkpt lat="40.63171333333333" lon="-3.1816416666666667">
<ele>655</ele>
<time>2017-03-02T10:25:21Z</time>
</trkpt>
<trkpt lat="40.63171333333333" lon="-3.1816416666666667">
<ele>655</ele>
<time>2017-03-02T10:25:23Z</time>
</trkpt>
<trkpt lat="40.63171333333333" lon="-3.1816416666666667">
<ele>655</ele>
<time>2017-03-02T10:25:25Z</time>
</trkpt>
<trkpt lat="40.631715" lon="-3.1816600000000004">
<ele>656</ele>
<time>2017-03-02T10:25:27Z</time>
</trkpt>
<trkpt lat="40.63179" lon="-3.181725">
<ele>656</ele>
<time>2017-03-02T10:25:29Z</time>
</trkpt>
<trkpt lat="40.631843333333336" lon="-3.181766666666667">
<ele>655</ele>
<time>2017-03-02T10:25:31Z</time>
</trkpt>
<trkpt lat="40.63182" lon="-3.1817516666666665">
<ele>655</ele>
<time>2017-03-02T10:25:33Z</time>
</trkpt>
<trkpt lat="40.6318" lon="-3.181745">
<ele>655</ele>
<time>2017-03-02T10:25:35Z</time>
</trkpt>
<trkpt lat="40.6318" lon="-3.181745">
<ele>655</ele>
<time>2017-03-02T10:25:37Z</time>
</trkpt>
<trkpt lat="40.63176833333333" lon="-3.1816883333333332">
<ele>655</ele>
<time>2017-03-02T10:25:39Z</time>
</trkpt>
<trkpt lat="40.63171" lon="-3.1816333333333335">
<ele>656</ele>
<time>2017-03-02T10:25:41Z</time>
</trkpt>
<trkpt lat="40.631636666666665" lon="-3.1816166666666663">
<ele>657</ele>
<time>2017-03-02T10:25:43Z</time>
</trkpt>
<trkpt lat="40.631618333333336" lon="-3.1816466666666665">
<ele>658</ele>
<time>2017-03-02T10:25:45Z</time>
</trkpt>
<trkpt lat="40.631598333333336" lon="-3.1816366666666664">
<ele>659</ele>
<time>2017-03-02T10:25:47Z</time>
</trkpt>
<trkpt lat="40.631585" lon="-3.181635">
<ele>660</ele>
<time>2017-03-02T10:25:49Z</time>
</trkpt>
<trkpt lat="40.631585" lon="-3.181635">
<ele>660</ele>
<time>2017-03-02T10:25:51Z</time>
</trkpt>
<trkpt lat="40.631585" lon="-3.181635">
<ele>660</ele>
<time>2017-03-02T10:25:53Z</time>
</trkpt>
<trkpt lat="40.631585" lon="-3.181635">
<ele>660</ele>
<time>2017-03-02T10:25:55Z</time>
</trkpt>
<trkpt lat="40.631585" lon="-3.181635">
<ele>660</ele>
<time>2017-03-02T10:25:57Z</time>
</trkpt>
<trkpt lat="40.631585" lon="-3.181635">
<ele>660</ele>
<time>2017-03-02T10:25:59Z</time>
</trkpt>
<trkpt lat="40.631585" lon="-3.181635">
<ele>660</ele>
<time>2017-03-02T10:26:01Z</time>
</trkpt>
<trkpt lat="40.631585" lon="-3.181635">
<ele>660</ele>
<time>2017-03-02T10:26:03Z</time>
</trkpt>
<trkpt lat="40.631585" lon="-3.181635">
<ele>660</ele>
<time>2017-03-02T10:26:05Z</time>
</trkpt>
<trkpt lat="40.631585" lon="-3.181635">
<ele>660</ele>
<time>2017-03-02T10:26:07Z</time>
</trkpt>
<trkpt lat="40.631585" lon="-3.181635">
<ele>660</ele>
<time>2017-03-02T10:26:09Z</time>
</trkpt>
<trkpt lat="40.63153666666666" lon="-3.181703333333333">
<ele>661</ele>
<time>2017-03-02T10:26:11Z</time>
</trkpt>
<trkpt lat="40.631521666666664" lon="-3.18173">
<ele>662</ele>
<time>2017-03-02T10:26:13Z</time>
</trkpt>
<trkpt lat="40.631525" lon="-3.1817350000000006">
<ele>662</ele>
<time>2017-03-02T10:26:15Z</time>
</trkpt>
<trkpt lat="40.631525" lon="-3.1817350000000006">
<ele>662</ele>
<time>2017-03-02T10:26:17Z</time>
</trkpt>
<trkpt lat="40.631525" lon="-3.1817350000000006">
<ele>662</ele>
<time>2017-03-02T10:26:19Z</time>
</trkpt>
<trkpt lat="40.63156166666667" lon="-3.1817583333333337">
<ele>661</ele>
<time>2017-03-02T10:26:21Z</time>
</trkpt>
<trkpt lat="40.631553333333336" lon="-3.181745">
<ele>661</ele>
<time>2017-03-02T10:26:23Z</time>
</trkpt>
<trkpt lat="40.631553333333336" lon="-3.181748333333333">
<ele>661</ele>
<time>2017-03-02T10:26:25Z</time>
</trkpt>
<trkpt lat="40.631553333333336" lon="-3.181748333333333">
<ele>661</ele>
<time>2017-03-02T10:26:27Z</time>
</trkpt>
<trkpt lat="40.631553333333336" lon="-3.181748333333333">
<ele>661</ele>
<time>2017-03-02T10:26:29Z</time>
</trkpt>
<trkpt lat="40.631553333333336" lon="-3.181748333333333">
<ele>661</ele>
<time>2017-03-02T10:26:31Z</time>
</trkpt>
<trkpt lat="40.631553333333336" lon="-3.181748333333333">
<ele>661</ele>
<time>2017-03-02T10:26:33Z</time>
</trkpt>
<trkpt lat="40.631553333333336" lon="-3.181748333333333">
<ele>661</ele>
<time>2017-03-02T10:26:35Z</time>
</trkpt>
<trkpt lat="40.631553333333336" lon="-3.181748333333333">
<ele>661</ele>
<time>2017-03-02T10:26:37Z</time>
</trkpt>
<trkpt lat="40.631553333333336" lon="-3.181748333333333">
<ele>661</ele>
<time>2017-03-02T10:26:39Z</time>
</trkpt>
<trkpt lat="40.631553333333336" lon="-3.181748333333333">
<ele>661</ele>
<time>2017-03-02T10:26:41Z</time>
</trkpt>
<trkpt lat="40.631553333333336" lon="-3.181748333333333">
<ele>661</ele>
<time>2017-03-02T10:26:43Z</time>
</trkpt>
<trkpt lat="40.631553333333336" lon="-3.181748333333333">
<ele>661</ele>
<time>2017-03-02T10:26:45Z</time>
</trkpt>
<trkpt lat="40.631553333333336" lon="-3.181748333333333">
<ele>661</ele>
<time>2017-03-02T10:26:47Z</time>
</trkpt>
<trkpt lat="40.631553333333336" lon="-3.181748333333333">
<ele>661</ele>
<time>2017-03-02T10:26:49Z</time>
</trkpt>
<trkpt lat="40.631553333333336" lon="-3.181748333333333">
<ele>661</ele>
<time>2017-03-02T10:26:51Z</time>
</trkpt>
<trkpt lat="40.631575" lon="-3.18185">
<ele>660</ele>
<time>2017-03-02T10:26:53Z</time>
</trkpt>
<trkpt lat="40.63158" lon="-3.1818866666666668">
<ele>660</ele>
<time>2017-03-02T10:26:55Z</time>
</trkpt>
<trkpt lat="40.63153" lon="-3.1819100000000002">
<ele>660</ele>
<time>2017-03-02T10:26:57Z</time>
</trkpt>
<trkpt lat="40.63153" lon="-3.181946666666667">
<ele>660</ele>
<time>2017-03-02T10:26:59Z</time>
</trkpt>
<trkpt lat="40.63155" lon="-3.1819633333333335">
<ele>660</ele>
<time>2017-03-02T10:27:01Z</time>
</trkpt>
<trkpt lat="40.63154833333333" lon="-3.1819733333333335">
<ele>660</ele>
<time>2017-03-02T10:27:03Z</time>
</trkpt>
<trkpt lat="40.63156" lon="-3.1819783333333334">
<ele>660</ele>
<time>2017-03-02T10:27:05Z</time>
</trkpt>
<trkpt lat="40.631571666666666" lon="-3.1819933333333332">
<ele>660</ele>
<time>2017-03-02T10:27:07Z</time>
</trkpt>
<trkpt lat="40.63157833333333" lon="-3.1820166666666667">
<ele>660</ele>
<time>2017-03-02T10:27:09Z</time>
</trkpt>
<trkpt lat="40.631600000000006" lon="-3.182048333333334">
<ele>660</ele>
<time>2017-03-02T10:27:11Z</time>
</trkpt>
<trkpt lat="40.63162166666667" lon="-3.1820533333333336">
<ele>660</ele>
<time>2017-03-02T10:27:13Z</time>
</trkpt>
<trkpt lat="40.631625" lon="-3.1820466666666665">
<ele>660</ele>
<time>2017-03-02T10:27:15Z</time>
</trkpt>
<trkpt lat="40.63162833333333" lon="-3.182041666666667">
<ele>660</ele>
<time>2017-03-02T10:27:17Z</time>
</trkpt>
<trkpt lat="40.63162833333333" lon="-3.182041666666667">
<ele>660</ele>
<time>2017-03-02T10:27:19Z</time>
</trkpt>
<trkpt lat="40.63162833333333" lon="-3.182041666666667">
<ele>660</ele>
<time>2017-03-02T10:27:21Z</time>
</trkpt>
<trkpt lat="40.63169833333333" lon="-3.182088333333333">
<ele>660</ele>
<time>2017-03-02T10:27:23Z</time>
</trkpt>
<trkpt lat="40.631726666666665" lon="-3.182103333333333">
<ele>660</ele>
<time>2017-03-02T10:27:25Z</time>
</trkpt>
<trkpt lat="40.631735000000006" lon="-3.1821266666666665">
<ele>661</ele>
<time>2017-03-02T10:27:27Z</time>
</trkpt>
<trkpt lat="40.631748333333334" lon="-3.182153333333333">
<ele>661</ele>
<time>2017-03-02T10:27:29Z</time>
</trkpt>
<trkpt lat="40.63177333333333" lon="-3.182175">
<ele>661</ele>
<time>2017-03-02T10:27:31Z</time>
</trkpt>
<trkpt lat="40.631791666666665" lon="-3.1822016666666664">
<ele>661</ele>
<time>2017-03-02T10:27:33Z</time>
</trkpt>
<trkpt lat="40.631811666666664" lon="-3.1822316666666666">
<ele>661</ele>
<time>2017-03-02T10:27:35Z</time>
</trkpt>
<trkpt lat="40.63181833333333" lon="-3.1822633333333328">
<ele>661</ele>
<time>2017-03-02T10:27:37Z</time>
</trkpt>
<trkpt lat="40.631805" lon="-3.1822950000000003">
<ele>661</ele>
<time>2017-03-02T10:27:39Z</time>
</trkpt>
<trkpt lat="40.63178666666667" lon="-3.182323333333333">
<ele>661</ele>
<time>2017-03-02T10:27:41Z</time>
</trkpt>
<trkpt lat="40.631766666666664" lon="-3.1823649999999994">
<ele>661</ele>
<time>2017-03-02T10:27:43Z</time>
</trkpt>
<trkpt lat="40.63173166666666" lon="-3.1823783333333333">
<ele>661</ele>
<time>2017-03-02T10:27:45Z</time>
</trkpt>
<trkpt lat="40.631726666666665" lon="-3.182405">
<ele>661</ele>
<time>2017-03-02T10:27:47Z</time>
</trkpt>
<trkpt lat="40.631735000000006" lon="-3.1824300000000005">
<ele>660</ele>
<time>2017-03-02T10:27:49Z</time>
</trkpt>
<trkpt lat="40.63176166666666" lon="-3.182485">
<ele>659</ele>
<time>2017-03-02T10:27:51Z</time>
</trkpt>
<trkpt lat="40.63173833333334" lon="-3.1824549999999996">
<ele>658</ele>
<time>2017-03-02T10:27:53Z</time>
</trkpt>
<trkpt lat="40.63171666666666" lon="-3.1824383333333333">
<ele>658</ele>
<time>2017-03-02T10:27:55Z</time>
</trkpt>
<trkpt lat="40.63167" lon="-3.1824300000000005">
<ele>658</ele>
<time>2017-03-02T10:27:57Z</time>
</trkpt>
<trkpt lat="40.63163333333333" lon="-3.1824383333333333">
<ele>658</ele>
<time>2017-03-02T10:27:59Z</time>
</trkpt>
<trkpt lat="40.63160666666667" lon="-3.1824233333333334">
<ele>658</ele>
<time>2017-03-02T10:28:01Z</time>
</trkpt>
<trkpt lat="40.631595" lon="-3.182425">
<ele>657</ele>
<time>2017-03-02T10:28:03Z</time>
</trkpt>
<trkpt lat="40.63156" lon="-3.1824099999999995">
<ele>657</ele>
<time>2017-03-02T10:28:05Z</time>
</trkpt>
<trkpt lat="40.631523333333334" lon="-3.18239">
<ele>657</ele>
<time>2017-03-02T10:28:07Z</time>
</trkpt>
<trkpt lat="40.63151833333333" lon="-3.1823799999999998">
<ele>657</ele>
<time>2017-03-02T10:28:09Z</time>
</trkpt>
<trkpt lat="40.63151833333333" lon="-3.1823799999999998">
<ele>657</ele>
<time>2017-03-02T10:28:11Z</time>
</trkpt>
<trkpt lat="40.63151833333333" lon="-3.1823799999999998">
<ele>657</ele>
<time>2017-03-02T10:28:13Z</time>
</trkpt>
<trkpt lat="40.63151833333333" lon="-3.1823799999999998">
<ele>657</ele>
<time>2017-03-02T10:28:15Z</time>
</trkpt>
<trkpt lat="40.63147" lon="-3.182316666666667">
<ele>659</ele>
<time>2017-03-02T10:28:17Z</time>
</trkpt>
<trkpt lat="40.63144" lon="-3.182288333333333">
<ele>659</ele>
<time>2017-03-02T10:28:19Z</time>
</trkpt>
<trkpt lat="40.631415" lon="-3.1822733333333333">
<ele>659</ele>
<time>2017-03-02T10:28:21Z</time>
</trkpt>
<trkpt lat="40.631415" lon="-3.1822733333333333">
<ele>659</ele>
<time>2017-03-02T10:28:23Z</time>
</trkpt>
<trkpt lat="40.631415" lon="-3.1822733333333333">
<ele>659</ele>
<time>2017-03-02T10:28:25Z</time>
</trkpt>
<trkpt lat="40.63138333333333" lon="-3.1822233333333334">
<ele>661</ele>
<time>2017-03-02T10:28:27Z</time>
</trkpt>
<trkpt lat="40.63136333333333" lon="-3.1822166666666667">
<ele>661</ele>
<time>2017-03-02T10:28:29Z</time>
</trkpt>
<trkpt lat="40.631355" lon="-3.1822099999999995">
<ele>661</ele>
<time>2017-03-02T10:28:31Z</time>
</trkpt>
<trkpt lat="40.631345" lon="-3.1821766666666673">
<ele>661</ele>
<time>2017-03-02T10:28:33Z</time>
</trkpt>
<trkpt lat="40.63132666666667" lon="-3.182161666666667">
<ele>662</ele>
<time>2017-03-02T10:28:35Z</time>
</trkpt>
<trkpt lat="40.63132666666667" lon="-3.1821216666666667">
<ele>663</ele>
<time>2017-03-02T10:28:37Z</time>
</trkpt>
<trkpt lat="40.63131" lon="-3.182103333333333">
<ele>663</ele>
<time>2017-03-02T10:28:39Z</time>
</trkpt>
<trkpt lat="40.63129166666667" lon="-3.1820833333333334">
<ele>663</ele>
<time>2017-03-02T10:28:41Z</time>
</trkpt>
<trkpt lat="40.63129833333333" lon="-3.1820450000000005">
<ele>664</ele>
<time>2017-03-02T10:28:43Z</time>
</trkpt>
<trkpt lat="40.63130666666667" lon="-3.182011666666667">
<ele>664</ele>
<time>2017-03-02T10:28:45Z</time>
</trkpt>
<trkpt lat="40.63131333333333" lon="-3.181985">
<ele>664</ele>
<time>2017-03-02T10:28:47Z</time>
</trkpt>
<trkpt lat="40.63130666666667" lon="-3.181943333333334">
<ele>664</ele>
<time>2017-03-02T10:28:49Z</time>
</trkpt>
<trkpt lat="40.63128666666667" lon="-3.1818816666666665">
<ele>664</ele>
<time>2017-03-02T10:28:51Z</time>
</trkpt>
<trkpt lat="40.63127333333333" lon="-3.18183">
<ele>665</ele>
<time>2017-03-02T10:28:53Z</time>
</trkpt>
<trkpt lat="40.631265" lon="-3.1817866666666665">
<ele>665</ele>
<time>2017-03-02T10:28:55Z</time>
</trkpt>
<trkpt lat="40.631265" lon="-3.1817583333333337">
<ele>665</ele>
<time>2017-03-02T10:28:57Z</time>
</trkpt>
<trkpt lat="40.63126833333333" lon="-3.1817416666666665">
<ele>665</ele>
<time>2017-03-02T10:28:59Z</time>
</trkpt>
<trkpt lat="40.63126833333333" lon="-3.1817416666666665">
<ele>665</ele>
<time>2017-03-02T10:29:01Z</time>
</trkpt>
<trkpt lat="40.63128666666667" lon="-3.1816683333333335">
<ele>666</ele>
<time>2017-03-02T10:29:03Z</time>
</trkpt>
<trkpt lat="40.63124666666667" lon="-3.181648333333334">
<ele>666</ele>
<time>2017-03-02T10:29:05Z</time>
</trkpt>
<trkpt lat="40.63122833333333" lon="-3.1816366666666664">
<ele>667</ele>
<time>2017-03-02T10:29:07Z</time>
</trkpt>
<trkpt lat="40.63121666666667" lon="-3.1816283333333333">
<ele>667</ele>
<time>2017-03-02T10:29:09Z</time>
</trkpt>
<trkpt lat="40.63121666666667" lon="-3.1816283333333333">
<ele>667</ele>
<time>2017-03-02T10:29:11Z</time>
</trkpt>
<trkpt lat="40.63121666666667" lon="-3.1816283333333333">
<ele>667</ele>
<time>2017-03-02T10:29:13Z</time>
</trkpt>
<trkpt lat="40.63121666666667" lon="-3.1816283333333333">
<ele>667</ele>
<time>2017-03-02T10:29:15Z</time>
</trkpt>
<trkpt lat="40.63121666666667" lon="-3.1816283333333333">
<ele>667</ele>
<time>2017-03-02T10:29:17Z</time>
</trkpt>
<trkpt lat="40.63121666666667" lon="-3.1816283333333333">
<ele>667</ele>
<time>2017-03-02T10:29:19Z</time>
</trkpt>
<trkpt lat="40.63121666666667" lon="-3.1816283333333333">
<ele>667</ele>
<time>2017-03-02T10:29:21Z</time>
</trkpt>
<trkpt lat="40.63122" lon="-3.1815100000000003">
<ele>669</ele>
<time>2017-03-02T10:29:23Z</time>
</trkpt>
<trkpt lat="40.63122166666667" lon="-3.1814883333333333">
<ele>669</ele>
<time>2017-03-02T10:29:25Z</time>
</trkpt>
<trkpt lat="40.631145" lon="-3.1821316666666672">
<ele>721</ele>
<time>2017-03-02T10:30:01Z</time>
</trkpt>
<trkpt lat="40.631135" lon="-3.1822733333333333">
<ele>730</ele>
<time>2017-03-02T10:30:03Z</time>
</trkpt>
<trkpt lat="40.631121666666665" lon="-3.182325">
<ele>737</ele>
<time>2017-03-02T10:30:05Z</time>
</trkpt>
<trkpt lat="40.63110666666667" lon="-3.1823349999999997">
<ele>737</ele>
<time>2017-03-02T10:30:07Z</time>
</trkpt>
<trkpt lat="40.63110666666667" lon="-3.1823349999999997">
<ele>737</ele>
<time>2017-03-02T10:30:09Z</time>
</trkpt>
<trkpt lat="40.63110666666667" lon="-3.1823349999999997">
<ele>737</ele>
<time>2017-03-02T10:30:11Z</time>
</trkpt>
<trkpt lat="40.63110666666667" lon="-3.1823349999999997">
<ele>737</ele>
<time>2017-03-02T10:30:13Z</time>
</trkpt>
<trkpt lat="40.63110666666667" lon="-3.1823349999999997">
<ele>737</ele>
<time>2017-03-02T10:30:15Z</time>
</trkpt>
<trkpt lat="40.63110666666667" lon="-3.1823349999999997">
<ele>737</ele>
<time>2017-03-02T10:30:17Z</time>
</trkpt>
<trkpt lat="40.63110666666667" lon="-3.1823349999999997">
<ele>737</ele>
<time>2017-03-02T10:30:19Z</time>
</trkpt>
<trkpt lat="40.63110666666667" lon="-3.1823349999999997">
<ele>737</ele>
<time>2017-03-02T10:30:21Z</time>
</trkpt>
<trkpt lat="40.63110666666667" lon="-3.1823349999999997">
<ele>737</ele>
<time>2017-03-02T10:30:23Z</time>
</trkpt>
<trkpt lat="40.63110666666667" lon="-3.1823349999999997">
<ele>737</ele>
<time>2017-03-02T10:30:25Z</time>
</trkpt>
<trkpt lat="40.63110666666667" lon="-3.1823349999999997">
<ele>737</ele>
<time>2017-03-02T10:30:27Z</time>
</trkpt>
<trkpt lat="40.63101166666667" lon="-3.182256666666667">
<ele>735</ele>
<time>2017-03-02T10:30:29Z</time>
</trkpt>
<trkpt lat="40.630995" lon="-3.1821816666666667">
<ele>735</ele>
<time>2017-03-02T10:30:31Z</time>
</trkpt>
<trkpt lat="40.63096666666667" lon="-3.1821233333333327">
<ele>734</ele>
<time>2017-03-02T10:30:33Z</time>
</trkpt>
<trkpt lat="40.630945" lon="-3.18205">
<ele>733</ele>
<time>2017-03-02T10:30:35Z</time>
</trkpt>
<trkpt lat="40.630923333333335" lon="-3.1819783333333334">
<ele>732</ele>
<time>2017-03-02T10:30:37Z</time>
</trkpt>
<trkpt lat="40.630898333333334" lon="-3.181916666666667">
<ele>727</ele>
<time>2017-03-02T10:30:39Z</time>
</trkpt>
<trkpt lat="40.63086666666666" lon="-3.1818549999999997">
<ele>725</ele>
<time>2017-03-02T10:30:41Z</time>
</trkpt>
<trkpt lat="40.630853333333334" lon="-3.1817866666666665">
<ele>722</ele>
<time>2017-03-02T10:30:43Z</time>
</trkpt>
<trkpt lat="40.630829999999996" lon="-3.1817183333333334">
<ele>720</ele>
<time>2017-03-02T10:30:45Z</time>
</trkpt>
<trkpt lat="40.63081" lon="-3.181656666666667">
<ele>719</ele>
<time>2017-03-02T10:30:47Z</time>
</trkpt>
<trkpt lat="40.630790000000005" lon="-3.181525">
<ele>709</ele>
<time>2017-03-02T10:30:49Z</time>
</trkpt>
<trkpt lat="40.63077" lon="-3.1813866666666666">
<ele>698</ele>
<time>2017-03-02T10:30:51Z</time>
</trkpt>
<trkpt lat="40.63075" lon="-3.181285">
<ele>692</ele>
<time>2017-03-02T10:30:53Z</time>
</trkpt>
<trkpt lat="40.63073" lon="-3.1812">
<ele>688</ele>
<time>2017-03-02T10:30:55Z</time>
</trkpt>
<trkpt lat="40.63099333333333" lon="-3.181948333333333">
<ele>672</ele>
<time>2017-03-02T10:31:29Z</time>
</trkpt>
<trkpt lat="40.63096666666667" lon="-3.1821433333333338">
<ele>687</ele>
<time>2017-03-02T10:31:31Z</time>
</trkpt>
<trkpt lat="40.63101166666667" lon="-3.1824533333333336">
<ele>686</ele>
<time>2017-03-02T10:31:33Z</time>
</trkpt>
<trkpt lat="40.63101166666667" lon="-3.1824533333333336">
<ele>686</ele>
<time>2017-03-02T10:31:35Z</time>
</trkpt>
<trkpt lat="40.63102833333333" lon="-3.1822549999999996">
<ele>678</ele>
<time>2017-03-02T10:31:37Z</time>
</trkpt>
<trkpt lat="40.63101666666667" lon="-3.182243333333333">
<ele>672</ele>
<time>2017-03-02T10:31:39Z</time>
</trkpt>
<trkpt lat="40.63101833333334" lon="-3.1822500000000002">
<ele>672</ele>
<time>2017-03-02T10:31:41Z</time>
</trkpt>
<trkpt lat="40.63101833333334" lon="-3.1822500000000002">
<ele>672</ele>
<time>2017-03-02T10:31:43Z</time>
</trkpt>
<trkpt lat="40.63101833333334" lon="-3.1822500000000002">
<ele>672</ele>
<time>2017-03-02T10:31:45Z</time>
</trkpt>
<trkpt lat="40.63101833333334" lon="-3.1822500000000002">
<ele>672</ele>
<time>2017-03-02T10:31:47Z</time>
</trkpt>
<trkpt lat="40.63101833333334" lon="-3.1822500000000002">
<ele>672</ele>
<time>2017-03-02T10:31:49Z</time>
</trkpt>
<trkpt lat="40.63101833333334" lon="-3.1822500000000002">
<ele>672</ele>
<time>2017-03-02T10:31:51Z</time>
</trkpt>
<trkpt lat="40.63101833333334" lon="-3.1822500000000002">
<ele>672</ele>
<time>2017-03-02T10:31:53Z</time>
</trkpt>
<trkpt lat="40.63101833333334" lon="-3.1822500000000002">
<ele>672</ele>
<time>2017-03-02T10:31:55Z</time>
</trkpt>
<trkpt lat="40.63104833333333" lon="-3.1821216666666667">
<ele>664</ele>
<time>2017-03-02T10:31:57Z</time>
</trkpt>
<trkpt lat="40.63104833333333" lon="-3.182106666666667">
<ele>665</ele>
<time>2017-03-02T10:31:59Z</time>
</trkpt>
<trkpt lat="40.63104833333333" lon="-3.182106666666667">
<ele>665</ele>
<time>2017-03-02T10:32:01Z</time>
</trkpt>
<trkpt lat="40.63104833333333" lon="-3.182106666666667">
<ele>665</ele>
<time>2017-03-02T10:32:03Z</time>
</trkpt>
<trkpt lat="40.63104833333333" lon="-3.182106666666667">
<ele>665</ele>
<time>2017-03-02T10:32:05Z</time>
</trkpt>
<trkpt lat="40.63104833333333" lon="-3.182106666666667">
<ele>665</ele>
<time>2017-03-02T10:32:07Z</time>
</trkpt>
<trkpt lat="40.63107" lon="-3.182066666666666">
<ele>665</ele>
<time>2017-03-02T10:32:09Z</time>
</trkpt>
<trkpt lat="40.631075" lon="-3.182043333333333">
<ele>664</ele>
<time>2017-03-02T10:32:11Z</time>
</trkpt>
<trkpt lat="40.63097833333334" lon="-3.1821550000000003">
<ele>665</ele>
<time>2017-03-02T10:32:39Z</time>
</trkpt>
<trkpt lat="40.63097833333334" lon="-3.1821550000000003">
<ele>665</ele>
<time>2017-03-02T10:32:41Z</time>
</trkpt>
<trkpt lat="40.631096666666664" lon="-3.1820183333333336">
<ele>635</ele>
<time>2017-03-02T10:32:43Z</time>
</trkpt>
<trkpt lat="40.631125" lon="-3.18199">
<ele>630</ele>
<time>2017-03-02T10:32:45Z</time>
</trkpt>
<trkpt lat="40.631135" lon="-3.1820016666666664">
<ele>633</ele>
<time>2017-03-02T10:32:47Z</time>
</trkpt>
<trkpt lat="40.63115666666667" lon="-3.182013333333333">
<ele>635</ele>
<time>2017-03-02T10:32:49Z</time>
</trkpt>
<trkpt lat="40.631168333333335" lon="-3.181998333333333">
<ele>638</ele>
<time>2017-03-02T10:32:51Z</time>
</trkpt>
<trkpt lat="40.63117" lon="-3.181988333333334">
<ele>639</ele>
<time>2017-03-02T10:32:53Z</time>
</trkpt>
<trkpt lat="40.63117" lon="-3.181988333333334">
<ele>639</ele>
<time>2017-03-02T10:32:55Z</time>
</trkpt>
<trkpt lat="40.63117" lon="-3.181988333333334">
<ele>639</ele>
<time>2017-03-02T10:32:57Z</time>
</trkpt>
<trkpt lat="40.63117" lon="-3.181988333333334">
<ele>639</ele>
<time>2017-03-02T10:32:59Z</time>
</trkpt>
<trkpt lat="40.63117" lon="-3.181988333333334">
<ele>639</ele>
<time>2017-03-02T10:33:01Z</time>
</trkpt>
<trkpt lat="40.63117" lon="-3.181988333333334">
<ele>639</ele>
<time>2017-03-02T10:33:03Z</time>
</trkpt>
<trkpt lat="40.63117" lon="-3.181988333333334">
<ele>639</ele>
<time>2017-03-02T10:33:05Z</time>
</trkpt>
<trkpt lat="40.63117" lon="-3.181988333333334">
<ele>639</ele>
<time>2017-03-02T10:33:07Z</time>
</trkpt>
<trkpt lat="40.63117" lon="-3.181988333333334">
<ele>639</ele>
<time>2017-03-02T10:33:09Z</time>
</trkpt>
<trkpt lat="40.63117" lon="-3.181988333333334">
<ele>639</ele>
<time>2017-03-02T10:33:11Z</time>
</trkpt>
<trkpt lat="40.63117" lon="-3.181988333333334">
<ele>639</ele>
<time>2017-03-02T10:33:13Z</time>
</trkpt>
<trkpt lat="40.63117" lon="-3.181988333333334">
<ele>639</ele>
<time>2017-03-02T10:33:15Z</time>
</trkpt>
<trkpt lat="40.63117" lon="-3.181988333333334">
<ele>639</ele>
<time>2017-03-02T10:33:17Z</time>
</trkpt>
<trkpt lat="40.63117" lon="-3.181988333333334">
<ele>639</ele>
<time>2017-03-02T10:33:19Z</time>
</trkpt>
<trkpt lat="40.63117" lon="-3.181988333333334">
<ele>639</ele>
<time>2017-03-02T10:33:21Z</time>
</trkpt>
<trkpt lat="40.63117" lon="-3.181988333333334">
<ele>639</ele>
<time>2017-03-02T10:33:23Z</time>
</trkpt>
<trkpt lat="40.63117" lon="-3.181988333333334">
<ele>639</ele>
<time>2017-03-02T10:33:25Z</time>
</trkpt>
<trkpt lat="40.63117" lon="-3.181988333333334">
<ele>639</ele>
<time>2017-03-02T10:33:27Z</time>
</trkpt>
<trkpt lat="40.63117" lon="-3.181988333333334">
<ele>639</ele>
<time>2017-03-02T10:33:29Z</time>
</trkpt>
<trkpt lat="40.63117" lon="-3.181988333333334">
<ele>639</ele>
<time>2017-03-02T10:33:31Z</time>
</trkpt>
<trkpt lat="40.63117" lon="-3.181988333333334">
<ele>639</ele>
<time>2017-03-02T10:33:33Z</time>
</trkpt>
<trkpt lat="40.63117" lon="-3.181988333333334">
<ele>639</ele>
<time>2017-03-02T10:33:35Z</time>
</trkpt>
<trkpt lat="40.63117" lon="-3.181988333333334">
<ele>639</ele>
<time>2017-03-02T10:33:37Z</time>
</trkpt>
<trkpt lat="40.63117" lon="-3.181988333333334">
<ele>639</ele>
<time>2017-03-02T10:33:39Z</time>
</trkpt>
<trkpt lat="40.63117" lon="-3.181988333333334">
<ele>639</ele>
<time>2017-03-02T10:33:41Z</time>
</trkpt>
<trkpt lat="40.63117" lon="-3.181988333333334">
<ele>639</ele>
<time>2017-03-02T10:33:43Z</time>
</trkpt>
<trkpt lat="40.63117" lon="-3.181988333333334">
<ele>639</ele>
<time>2017-03-02T10:33:45Z</time>
</trkpt>
<trkpt lat="40.63117" lon="-3.181988333333334">
<ele>639</ele>
<time>2017-03-02T10:33:47Z</time>
</trkpt>
<trkpt lat="40.63117" lon="-3.181988333333334">
<ele>639</ele>
<time>2017-03-02T10:33:49Z</time>
</trkpt>
<trkpt lat="40.63117" lon="-3.181988333333334">
<ele>639</ele>
<time>2017-03-02T10:33:51Z</time>
</trkpt>
<trkpt lat="40.63117" lon="-3.181988333333334">
<ele>639</ele>
<time>2017-03-02T10:33:53Z</time>
</trkpt>
<trkpt lat="40.63117" lon="-3.181988333333334">
<ele>639</ele>
<time>2017-03-02T10:33:55Z</time>
</trkpt>
<trkpt lat="40.63117" lon="-3.181988333333334">
<ele>639</ele>
<time>2017-03-02T10:33:57Z</time>
</trkpt>
<trkpt lat="40.63117" lon="-3.181988333333334">
<ele>639</ele>
<time>2017-03-02T10:33:59Z</time>
</trkpt>
<trkpt lat="40.63117" lon="-3.181988333333334">
<ele>639</ele>
<time>2017-03-02T10:34:01Z</time>
</trkpt>
<trkpt lat="40.63117" lon="-3.181988333333334">
<ele>639</ele>
<time>2017-03-02T10:34:03Z</time>
</trkpt>
<trkpt lat="40.63117" lon="-3.181988333333334">
<ele>639</ele>
<time>2017-03-02T10:34:05Z</time>
</trkpt>
<trkpt lat="40.63117" lon="-3.181988333333334">
<ele>639</ele>
<time>2017-03-02T10:34:07Z</time>
</trkpt>
<trkpt lat="40.63117" lon="-3.181988333333334">
<ele>639</ele>
<time>2017-03-02T10:34:09Z</time>
</trkpt>
<trkpt lat="40.63117" lon="-3.181988333333334">
<ele>639</ele>
<time>2017-03-02T10:34:11Z</time>
</trkpt>
<trkpt lat="40.63117" lon="-3.181988333333334">
<ele>639</ele>
<time>2017-03-02T10:34:13Z</time>
</trkpt>
<trkpt lat="40.63117" lon="-3.181988333333334">
<ele>639</ele>
<time>2017-03-02T10:34:15Z</time>
</trkpt>
<trkpt lat="40.63117" lon="-3.181988333333334">
<ele>639</ele>
<time>2017-03-02T10:34:17Z</time>
</trkpt>
<trkpt lat="40.63117" lon="-3.181988333333334">
<ele>639</ele>
<time>2017-03-02T10:34:19Z</time>
</trkpt>
<trkpt lat="40.63117" lon="-3.181988333333334">
<ele>639</ele>
<time>2017-03-02T10:34:21Z</time>
</trkpt>
<trkpt lat="40.63117" lon="-3.181988333333334">
<ele>639</ele>
<time>2017-03-02T10:34:23Z</time>
</trkpt>
<trkpt lat="40.63117" lon="-3.181988333333334">
<ele>639</ele>
<time>2017-03-02T10:34:25Z</time>
</trkpt>
<trkpt lat="40.63117" lon="-3.181988333333334">
<ele>639</ele>
<time>2017-03-02T10:34:27Z</time>
</trkpt>
<trkpt lat="40.63117" lon="-3.181988333333334">
<ele>639</ele>
<time>2017-03-02T10:34:29Z</time>
</trkpt>
<trkpt lat="40.63117" lon="-3.181988333333334">
<ele>639</ele>
<time>2017-03-02T10:34:31Z</time>
</trkpt>
<trkpt lat="40.63117" lon="-3.181988333333334">
<ele>639</ele>
<time>2017-03-02T10:34:33Z</time>
</trkpt>
<trkpt lat="40.63117" lon="-3.181988333333334">
<ele>639</ele>
<time>2017-03-02T10:34:35Z</time>
</trkpt>
<trkpt lat="40.63117" lon="-3.181988333333334">
<ele>639</ele>
<time>2017-03-02T10:34:37Z</time>
</trkpt>
<trkpt lat="40.63117" lon="-3.181988333333334">
<ele>639</ele>
<time>2017-03-02T10:34:39Z</time>
</trkpt>
<trkpt lat="40.63117" lon="-3.181988333333334">
<ele>639</ele>
<time>2017-03-02T10:34:41Z</time>
</trkpt>
<trkpt lat="40.63117" lon="-3.181988333333334">
<ele>639</ele>
<time>2017-03-02T10:34:43Z</time>
</trkpt>
<trkpt lat="40.63117" lon="-3.181988333333334">
<ele>639</ele>
<time>2017-03-02T10:34:45Z</time>
</trkpt>
<trkpt lat="40.63117" lon="-3.181988333333334">
<ele>639</ele>
<time>2017-03-02T10:34:47Z</time>
</trkpt>
<trkpt lat="40.63117" lon="-3.181988333333334">
<ele>639</ele>
<time>2017-03-02T10:34:49Z</time>
</trkpt>
<trkpt lat="40.63117" lon="-3.181988333333334">
<ele>639</ele>
<time>2017-03-02T10:34:51Z</time>
</trkpt>
<trkpt lat="40.63117" lon="-3.181988333333334">
<ele>639</ele>
<time>2017-03-02T10:34:53Z</time>
</trkpt>
<trkpt lat="40.63117" lon="-3.181988333333334">
<ele>639</ele>
<time>2017-03-02T10:34:55Z</time>
</trkpt>
<trkpt lat="40.63117" lon="-3.181988333333334">
<ele>639</ele>
<time>2017-03-02T10:34:57Z</time>
</trkpt>
<trkpt lat="40.63117" lon="-3.181988333333334">
<ele>639</ele>
<time>2017-03-02T10:34:59Z</time>
</trkpt>
<trkpt lat="40.63117" lon="-3.181988333333334">
<ele>639</ele>
<time>2017-03-02T10:35:01Z</time>
</trkpt>
<trkpt lat="40.63117" lon="-3.181988333333334">
<ele>639</ele>
<time>2017-03-02T10:35:03Z</time>
</trkpt>
<trkpt lat="40.63117" lon="-3.181988333333334">
<ele>639</ele>
<time>2017-03-02T10:35:05Z</time>
</trkpt>
<trkpt lat="40.63117" lon="-3.181988333333334">
<ele>639</ele>
<time>2017-03-02T10:35:07Z</time>
</trkpt>
<trkpt lat="40.63117" lon="-3.181988333333334">
<ele>639</ele>
<time>2017-03-02T10:35:09Z</time>
</trkpt>
<trkpt lat="40.63117" lon="-3.181988333333334">
<ele>639</ele>
<time>2017-03-02T10:35:11Z</time>
</trkpt>
<trkpt lat="40.63117" lon="-3.181988333333334">
<ele>639</ele>
<time>2017-03-02T10:35:13Z</time>
</trkpt>
<trkpt lat="40.63117" lon="-3.181988333333334">
<ele>639</ele>
<time>2017-03-02T10:35:15Z</time>
</trkpt>
<trkpt lat="40.63117" lon="-3.181988333333334">
<ele>639</ele>
<time>2017-03-02T10:35:17Z</time>
</trkpt>
<trkpt lat="40.63117" lon="-3.181988333333334">
<ele>639</ele>
<time>2017-03-02T10:35:19Z</time>
</trkpt>
<trkpt lat="40.63117" lon="-3.181988333333334">
<ele>639</ele>
<time>2017-03-02T10:35:21Z</time>
</trkpt>
<trkpt lat="40.63117" lon="-3.181988333333334">
<ele>639</ele>
<time>2017-03-02T10:35:23Z</time>
</trkpt>
<trkpt lat="40.63117" lon="-3.181988333333334">
<ele>639</ele>
<time>2017-03-02T10:35:25Z</time>
</trkpt>
<trkpt lat="40.63126666666667" lon="-3.1820600000000003">
<ele>647</ele>
<time>2017-03-02T10:35:27Z</time>
</trkpt>
<trkpt lat="40.631274999999995" lon="-3.1820549999999996">
<ele>647</ele>
<time>2017-03-02T10:35:29Z</time>
</trkpt>
<trkpt lat="40.631274999999995" lon="-3.1820549999999996">
<ele>647</ele>
<time>2017-03-02T10:35:31Z</time>
</trkpt>
<trkpt lat="40.631274999999995" lon="-3.1820549999999996">
<ele>647</ele>
<time>2017-03-02T10:35:33Z</time>
</trkpt>
<trkpt lat="40.631274999999995" lon="-3.1820549999999996">
<ele>647</ele>
<time>2017-03-02T10:35:35Z</time>
</trkpt>
<trkpt lat="40.631274999999995" lon="-3.1820549999999996">
<ele>647</ele>
<time>2017-03-02T10:35:37Z</time>
</trkpt>
<trkpt lat="40.631274999999995" lon="-3.1820549999999996">
<ele>647</ele>
<time>2017-03-02T10:35:39Z</time>
</trkpt>
<trkpt lat="40.631274999999995" lon="-3.1820549999999996">
<ele>647</ele>
<time>2017-03-02T10:35:41Z</time>
</trkpt>
<trkpt lat="40.631274999999995" lon="-3.1820549999999996">
<ele>647</ele>
<time>2017-03-02T10:35:43Z</time>
</trkpt>
<trkpt lat="40.631274999999995" lon="-3.1820549999999996">
<ele>647</ele>
<time>2017-03-02T10:35:45Z</time>
</trkpt>
<trkpt lat="40.631274999999995" lon="-3.1820549999999996">
<ele>647</ele>
<time>2017-03-02T10:35:47Z</time>
</trkpt>
<trkpt lat="40.631274999999995" lon="-3.1820549999999996">
<ele>647</ele>
<time>2017-03-02T10:35:49Z</time>
</trkpt>
<trkpt lat="40.631274999999995" lon="-3.1820549999999996">
<ele>647</ele>
<time>2017-03-02T10:35:51Z</time>
</trkpt>
<trkpt lat="40.631274999999995" lon="-3.1820549999999996">
<ele>647</ele>
<time>2017-03-02T10:35:53Z</time>
</trkpt>
<trkpt lat="40.631274999999995" lon="-3.1820549999999996">
<ele>647</ele>
<time>2017-03-02T10:35:55Z</time>
</trkpt>
<trkpt lat="40.631274999999995" lon="-3.1820549999999996">
<ele>647</ele>
<time>2017-03-02T10:35:57Z</time>
</trkpt>
<trkpt lat="40.631274999999995" lon="-3.1820549999999996">
<ele>647</ele>
<time>2017-03-02T10:35:59Z</time>
</trkpt>
<trkpt lat="" lon="">
<ele></ele>
<time>2017-03-02TZ</time>
</trkpt>
</trkseg>
</trk>
<wpt lat="" lon="">
	<name></name>
	<desc></desc>
	<cmt></cmt>
	<photoid></photoid>
	<type></type>
</wpt>
</gpx>
